sensor_id;sensor_type;location;lat;lon;timestamp;temperature;humidity
38604;DHT22;24924;50.054;8.790;2023-06-14T00:00:59;17.10;91.90
38604;DHT22;24924;50.054;8.790;2023-06-14T00:03:25;16.90;94.40
38604;DHT22;24924;50.054;8.790;2023-06-14T00:05:51;16.80;93.40
38604;DHT22;24924;50.054;8.790;2023-06-14T00:08:17;16.80;93.10
38604;DHT22;24924;50.054;8.790;2023-06-14T00:10:45;16.80;92.50
38604;DHT22;24924;50.054;8.790;2023-06-14T00:13:11;16.60;93.10
38604;DHT22;24924;50.054;8.790;2023-06-14T00:15:37;16.60;92.70
38604;DHT22;24924;50.054;8.790;2023-06-14T00:18:04;16.60;93.00
38604;DHT22;24924;50.054;8.790;2023-06-14T00:20:32;16.60;92.80
38604;DHT22;24924;50.054;8.790;2023-06-14T00:22:59;16.50;93.60
38604;DHT22;24924;50.054;8.790;2023-06-14T00:25:25;16.40;95.10
38604;DHT22;24924;50.054;8.790;2023-06-14T00:27:55;16.40;95.20
38604;DHT22;24924;50.054;8.790;2023-06-14T00:30:21;16.30;95.00
38604;DHT22;24924;50.054;8.790;2023-06-14T00:32:47;16.30;94.20
38604;DHT22;24924;50.054;8.790;2023-06-14T00:35:13;16.30;94.00
38604;DHT22;24924;50.054;8.790;2023-06-14T00:37:40;16.30;94.40
38604;DHT22;24924;50.054;8.790;2023-06-14T00:40:07;16.30;94.50
38604;DHT22;24924;50.054;8.790;2023-06-14T00:42:33;16.30;93.70
38604;DHT22;24924;50.054;8.790;2023-06-14T00:45:00;16.40;95.20
38604;DHT22;24924;50.054;8.790;2023-06-14T00:47:26;16.40;94.20
38604;DHT22;24924;50.054;8.790;2023-06-14T00:49:53;16.50;93.80
38604;DHT22;24924;50.054;8.790;2023-06-14T00:52:21;16.60;93.20
38604;DHT22;24924;50.054;8.790;2023-06-14T00:54:47;16.60;94.00
38604;DHT22;24924;50.054;8.790;2023-06-14T00:57:14;16.70;93.10
38604;DHT22;24924;50.054;8.790;2023-06-14T00:59:48;16.70;92.80
38604;DHT22;24924;50.054;8.790;2023-06-14T01:02:15;16.80;92.80
38604;DHT22;24924;50.054;8.790;2023-06-14T01:04:45;16.80;92.80
38604;DHT22;24924;50.054;8.790;2023-06-14T01:07:18;16.70;93.60
38604;DHT22;24924;50.054;8.790;2023-06-14T01:15:07;16.80;93.30
38604;DHT22;24924;50.054;8.790;2023-06-14T01:17:34;16.70;92.80
38604;DHT22;24924;50.054;8.790;2023-06-14T01:20:04;16.70;93.10
38604;DHT22;24924;50.054;8.790;2023-06-14T01:22:35;16.70;93.10
38604;DHT22;24924;50.054;8.790;2023-06-14T01:25:01;16.80;92.60
38604;DHT22;24924;50.054;8.790;2023-06-14T01:27:27;16.90;92.20
38604;DHT22;24924;50.054;8.790;2023-06-14T01:29:58;16.90;91.90
38604;DHT22;24924;50.054;8.790;2023-06-14T01:32:26;17.00;91.60
38604;DHT22;24924;50.054;8.790;2023-06-14T01:34:53;17.00;91.50
38604;DHT22;24924;50.054;8.790;2023-06-14T01:37:20;17.00;91.60
38604;DHT22;24924;50.054;8.790;2023-06-14T01:39:48;16.90;92.10
38604;DHT22;24924;50.054;8.790;2023-06-14T01:42:18;16.90;91.90
38604;DHT22;24924;50.054;8.790;2023-06-14T01:44:46;16.80;91.90
38604;DHT22;24924;50.054;8.790;2023-06-14T01:47:14;16.80;91.90
38604;DHT22;24924;50.054;8.790;2023-06-14T01:49:40;16.80;92.00
38604;DHT22;24924;50.054;8.790;2023-06-14T01:52:07;16.90;91.80
38604;DHT22;24924;50.054;8.790;2023-06-14T01:54:35;16.80;91.70
38604;DHT22;24924;50.054;8.790;2023-06-14T01:57:03;16.70;91.90
38604;DHT22;24924;50.054;8.790;2023-06-14T01:59:29;16.70;92.00
38604;DHT22;24924;50.054;8.790;2023-06-14T02:01:57;16.70;92.00
38604;DHT22;24924;50.054;8.790;2023-06-14T02:04:23;16.70;92.00
38604;DHT22;24924;50.054;8.790;2023-06-14T02:06:48;16.80;91.70
38604;DHT22;24924;50.054;8.790;2023-06-14T02:09:14;16.80;91.80
38604;DHT22;24924;50.054;8.790;2023-06-14T02:11:41;16.80;91.90
38604;DHT22;24924;50.054;8.790;2023-06-14T02:14:07;16.70;91.80
38604;DHT22;24924;50.054;8.790;2023-06-14T02:16:37;16.70;92.00
38604;DHT22;24924;50.054;8.790;2023-06-14T02:19:05;16.60;92.30
38604;DHT22;24924;50.054;8.790;2023-06-14T02:21:31;16.50;92.70
38604;DHT22;24924;50.054;8.790;2023-06-14T02:23:57;16.50;92.50
38604;DHT22;24924;50.054;8.790;2023-06-14T02:26:24;16.40;93.20
38604;DHT22;24924;50.054;8.790;2023-06-14T02:28:50;16.40;92.90
38604;DHT22;24924;50.054;8.790;2023-06-14T02:31:15;16.20;93.20
38604;DHT22;24924;50.054;8.790;2023-06-14T02:33:41;16.20;93.20
38604;DHT22;24924;50.054;8.790;2023-06-14T02:36:07;16.40;92.60
38604;DHT22;24924;50.054;8.790;2023-06-14T02:38:34;16.40;92.90
38604;DHT22;24924;50.054;8.790;2023-06-14T02:41:00;16.40;92.70
38604;DHT22;24924;50.054;8.790;2023-06-14T02:43:29;16.50;92.70
38604;DHT22;24924;50.054;8.790;2023-06-14T02:45:55;16.40;93.30
38604;DHT22;24924;50.054;8.790;2023-06-14T02:48:21;16.30;93.20
38604;DHT22;24924;50.054;8.790;2023-06-14T02:50:46;16.20;94.00
38604;DHT22;24924;50.054;8.790;2023-06-14T02:53:13;16.10;93.80
38604;DHT22;24924;50.054;8.790;2023-06-14T02:55:39;16.00;94.50
38604;DHT22;24924;50.054;8.790;2023-06-14T02:58:06;16.00;94.30
38604;DHT22;24924;50.054;8.790;2023-06-14T03:00:33;16.00;94.30
38604;DHT22;24924;50.054;8.790;2023-06-14T03:03:01;15.90;94.70
38604;DHT22;24924;50.054;8.790;2023-06-14T03:05:28;16.00;94.00
38604;DHT22;24924;50.054;8.790;2023-06-14T03:07:54;16.00;94.30
38604;DHT22;24924;50.054;8.790;2023-06-14T03:10:20;15.90;94.50
38604;DHT22;24924;50.054;8.790;2023-06-14T03:12:49;15.80;94.80
38604;DHT22;24924;50.054;8.790;2023-06-14T03:15:17;15.70;95.90
38604;DHT22;24924;50.054;8.790;2023-06-14T03:17:46;15.60;96.20
38604;DHT22;24924;50.054;8.790;2023-06-14T03:20:15;15.50;95.60
38604;DHT22;24924;50.054;8.790;2023-06-14T03:22:41;15.60;95.20
38604;DHT22;24924;50.054;8.790;2023-06-14T03:25:12;15.50;96.20
38604;DHT22;24924;50.054;8.790;2023-06-14T03:27:40;15.50;96.00
38604;DHT22;24924;50.054;8.790;2023-06-14T03:30:06;15.50;95.70
38604;DHT22;24924;50.054;8.790;2023-06-14T03:32:34;15.50;96.50
38604;DHT22;24924;50.054;8.790;2023-06-14T03:35:00;15.60;96.30
38604;DHT22;24924;50.054;8.790;2023-06-14T03:37:26;15.60;96.10
38604;DHT22;24924;50.054;8.790;2023-06-14T03:39:52;15.60;96.00
38604;DHT22;24924;50.054;8.790;2023-06-14T03:42:21;15.70;95.90
38604;DHT22;24924;50.054;8.790;2023-06-14T03:44:48;15.70;96.60
38604;DHT22;24924;50.054;8.790;2023-06-14T03:47:14;15.70;95.90
38604;DHT22;24924;50.054;8.790;2023-06-14T03:49:41;15.60;96.20
38604;DHT22;24924;50.054;8.790;2023-06-14T03:52:07;15.70;95.90
38604;DHT22;24924;50.054;8.790;2023-06-14T03:54:35;15.70;95.80
38604;DHT22;24924;50.054;8.790;2023-06-14T03:57:01;15.70;96.00
38604;DHT22;24924;50.054;8.790;2023-06-14T03:59:26;15.70;96.60
38604;DHT22;24924;50.054;8.790;2023-06-14T04:01:54;15.50;98.20
38604;DHT22;24924;50.054;8.790;2023-06-14T04:04:20;15.40;98.20
38604;DHT22;24924;50.054;8.790;2023-06-14T04:06:47;15.40;98.20
38604;DHT22;24924;50.054;8.790;2023-06-14T04:09:14;15.30;99.20
38604;DHT22;24924;50.054;8.790;2023-06-14T04:11:40;15.30;98.80
38604;DHT22;24924;50.054;8.790;2023-06-14T04:14:06;15.30;99.20
38604;DHT22;24924;50.054;8.790;2023-06-14T04:16:32;15.30;99.30
38604;DHT22;24924;50.054;8.790;2023-06-14T04:19:00;15.30;99.10
38604;DHT22;24924;50.054;8.790;2023-06-14T04:21:26;15.40;99.40
38604;DHT22;24924;50.054;8.790;2023-06-14T04:23:56;15.30;99.90
38604;DHT22;24924;50.054;8.790;2023-06-14T04:26:25;15.30;99.90
38604;DHT22;24924;50.054;8.790;2023-06-14T04:28:56;15.40;99.90
38604;DHT22;24924;50.054;8.790;2023-06-14T04:31:23;15.40;99.90
38604;DHT22;24924;50.054;8.790;2023-06-14T04:33:56;15.60;99.40
38604;DHT22;24924;50.054;8.790;2023-06-14T04:36:22;15.60;99.50
38604;DHT22;24924;50.054;8.790;2023-06-14T04:38:50;15.70;99.90
38604;DHT22;24924;50.054;8.790;2023-06-14T04:41:21;15.70;99.70
38604;DHT22;24924;50.054;8.790;2023-06-14T04:43:49;15.80;99.30
38604;DHT22;24924;50.054;8.790;2023-06-14T04:46:16;15.90;99.70
38604;DHT22;24924;50.054;8.790;2023-06-14T04:48:42;15.90;99.40
38604;DHT22;24924;50.054;8.790;2023-06-14T04:51:09;15.80;99.90
38604;DHT22;24924;50.054;8.790;2023-06-14T04:53:35;15.80;99.90
38604;DHT22;24924;50.054;8.790;2023-06-14T04:56:02;16.00;99.80
38604;DHT22;24924;50.054;8.790;2023-06-14T04:58:31;16.00;99.90
38604;DHT22;24924;50.054;8.790;2023-06-14T05:00:57;16.00;99.70
38604;DHT22;24924;50.054;8.790;2023-06-14T05:03:25;16.00;99.80
38604;DHT22;24924;50.054;8.790;2023-06-14T05:05:52;16.10;99.40
38604;DHT22;24924;50.054;8.790;2023-06-14T05:08:19;16.30;99.50
38604;DHT22;24924;50.054;8.790;2023-06-14T05:10:46;16.20;99.80
38604;DHT22;24924;50.054;8.790;2023-06-14T05:13:12;16.30;99.30
38604;DHT22;24924;50.054;8.790;2023-06-14T05:15:38;16.30;99.50
38604;DHT22;24924;50.054;8.790;2023-06-14T05:18:04;16.40;99.40
38604;DHT22;24924;50.054;8.790;2023-06-14T05:20:30;16.50;99.90
38604;DHT22;24924;50.054;8.790;2023-06-14T05:22:56;16.50;99.40
38604;DHT22;24924;50.054;8.790;2023-06-14T05:25:22;16.60;99.70
38604;DHT22;24924;50.054;8.790;2023-06-14T05:27:48;16.80;98.40
38604;DHT22;24924;50.054;8.790;2023-06-14T05:30:15;16.80;98.30
38604;DHT22;24924;50.054;8.790;2023-06-14T05:32:41;16.90;98.80
38604;DHT22;24924;50.054;8.790;2023-06-14T05:35:07;17.10;98.90
38604;DHT22;24924;50.054;8.790;2023-06-14T05:37:33;16.60;98.40
38604;DHT22;24924;50.054;8.790;2023-06-14T05:39:59;17.30;98.30
38604;DHT22;24924;50.054;8.790;2023-06-14T05:42:25;17.60;96.50
38604;DHT22;24924;50.054;8.790;2023-06-14T05:44:51;17.70;96.40
38604;DHT22;24924;50.054;8.790;2023-06-14T05:47:16;17.80;96.70
38604;DHT22;24924;50.054;8.790;2023-06-14T05:49:42;17.90;96.60
38604;DHT22;24924;50.054;8.790;2023-06-14T05:52:08;18.10;96.10
38604;DHT22;24924;50.054;8.790;2023-06-14T05:54:33;18.10;95.90
38604;DHT22;24924;50.054;8.790;2023-06-14T05:57:00;18.20;95.80
38604;DHT22;24924;50.054;8.790;2023-06-14T05:59:27;18.40;96.00
38604;DHT22;24924;50.054;8.790;2023-06-14T06:01:53;18.40;97.30
38604;DHT22;24924;50.054;8.790;2023-06-14T06:04:19;18.30;95.80
38604;DHT22;24924;50.054;8.790;2023-06-14T06:06:45;18.50;95.30
38604;DHT22;24924;50.054;8.790;2023-06-14T06:09:12;18.40;95.60
38604;DHT22;24924;50.054;8.790;2023-06-14T06:11:40;18.60;95.50
38604;DHT22;24924;50.054;8.790;2023-06-14T06:14:06;18.50;95.60
38604;DHT22;24924;50.054;8.790;2023-06-14T06:16:32;18.60;95.30
38604;DHT22;24924;50.054;8.790;2023-06-14T06:18:59;18.60;94.90
38604;DHT22;24924;50.054;8.790;2023-06-14T06:21:25;18.70;94.90
38604;DHT22;24924;50.054;8.790;2023-06-14T06:23:51;18.90;95.20
38604;DHT22;24924;50.054;8.790;2023-06-14T06:26:16;19.00;94.60
38604;DHT22;24924;50.054;8.790;2023-06-14T06:28:42;19.10;94.90
38604;DHT22;24924;50.054;8.790;2023-06-14T06:31:08;19.40;94.90
38604;DHT22;24924;50.054;8.790;2023-06-14T06:33:34;19.10;93.90
38604;DHT22;24924;50.054;8.790;2023-06-14T06:36:02;19.20;94.70
38604;DHT22;24924;50.054;8.790;2023-06-14T06:38:28;19.30;94.30
38604;DHT22;24924;50.054;8.790;2023-06-14T06:40:53;19.30;94.10
38604;DHT22;24924;50.054;8.790;2023-06-14T06:43:19;19.50;93.90
38604;DHT22;24924;50.054;8.790;2023-06-14T06:45:47;19.60;93.10
38604;DHT22;24924;50.054;8.790;2023-06-14T06:48:13;19.50;92.90
38604;DHT22;24924;50.054;8.790;2023-06-14T06:50:38;19.50;92.70
38604;DHT22;24924;50.054;8.790;2023-06-14T06:53:04;19.70;93.00
38604;DHT22;24924;50.054;8.790;2023-06-14T06:55:30;20.00;92.80
38604;DHT22;24924;50.054;8.790;2023-06-14T06:57:56;20.20;92.20
38604;DHT22;24924;50.054;8.790;2023-06-14T07:00:22;20.10;92.20
38604;DHT22;24924;50.054;8.790;2023-06-14T07:02:48;20.20;92.10
38604;DHT22;24924;50.054;8.790;2023-06-14T07:05:14;20.30;91.70
38604;DHT22;24924;50.054;8.790;2023-06-14T07:07:40;20.30;91.60
38604;DHT22;24924;50.054;8.790;2023-06-14T07:10:06;20.40;91.40
38604;DHT22;24924;50.054;8.790;2023-06-14T07:12:35;20.60;91.60
38604;DHT22;24924;50.054;8.790;2023-06-14T07:15:09;20.70;90.70
38604;DHT22;24924;50.054;8.790;2023-06-14T07:17:35;20.80;90.20
38604;DHT22;24924;50.054;8.790;2023-06-14T07:20:02;20.90;90.40
38604;DHT22;24924;50.054;8.790;2023-06-14T07:22:39;20.80;90.20
38604;DHT22;24924;50.054;8.790;2023-06-14T07:25:07;20.80;90.40
38604;DHT22;24924;50.054;8.790;2023-06-14T07:27:34;21.00;89.80
38604;DHT22;24924;50.054;8.790;2023-06-14T07:29:59;21.20;90.40
38604;DHT22;24924;50.054;8.790;2023-06-14T07:32:25;21.20;89.40
38604;DHT22;24924;50.054;8.790;2023-06-14T07:34:51;21.30;88.20
38604;DHT22;24924;50.054;8.790;2023-06-14T07:37:16;21.30;87.40
38604;DHT22;24924;50.054;8.790;2023-06-14T07:39:42;21.40;88.60
38604;DHT22;24924;50.054;8.790;2023-06-14T07:42:08;21.40;88.10
38604;DHT22;24924;50.054;8.790;2023-06-14T07:44:33;21.60;87.40
38604;DHT22;24924;50.054;8.790;2023-06-14T07:46:59;21.60;87.00
38604;DHT22;24924;50.054;8.790;2023-06-14T07:49:26;21.90;88.10
38604;DHT22;24924;50.054;8.790;2023-06-14T07:51:52;22.00;87.10
38604;DHT22;24924;50.054;8.790;2023-06-14T07:54:19;22.00;87.40
38604;DHT22;24924;50.054;8.790;2023-06-14T07:56:50;22.10;87.50
38604;DHT22;24924;50.054;8.790;2023-06-14T07:59:16;22.20;87.90
38604;DHT22;24924;50.054;8.790;2023-06-14T08:01:42;22.30;87.20
38604;DHT22;24924;50.054;8.790;2023-06-14T08:04:13;22.30;87.60
38604;DHT22;24924;50.054;8.790;2023-06-14T08:06:39;22.30;87.90
38604;DHT22;24924;50.054;8.790;2023-06-14T08:09:05;22.30;86.40
38604;DHT22;24924;50.054;8.790;2023-06-14T08:11:31;22.30;87.30
38604;DHT22;24924;50.054;8.790;2023-06-14T08:13:57;22.50;87.20
38604;DHT22;24924;50.054;8.790;2023-06-14T08:16:23;22.60;87.80
38604;DHT22;24924;50.054;8.790;2023-06-14T08:18:49;22.90;87.60
38604;DHT22;24924;50.054;8.790;2023-06-14T08:21:15;23.00;86.20
38604;DHT22;24924;50.054;8.790;2023-06-14T08:23:41;23.20;86.60
38604;DHT22;24924;50.054;8.790;2023-06-14T08:26:10;23.40;84.20
38604;DHT22;24924;50.054;8.790;2023-06-14T08:28:36;23.50;84.70
38604;DHT22;24924;50.054;8.790;2023-06-14T08:31:02;23.50;84.30
38604;DHT22;24924;50.054;8.790;2023-06-14T08:33:28;23.40;84.10
38604;DHT22;24924;50.054;8.790;2023-06-14T08:35:54;23.30;83.40
38604;DHT22;24924;50.054;8.790;2023-06-14T08:38:20;23.40;83.50
38604;DHT22;24924;50.054;8.790;2023-06-14T08:40:50;23.50;83.80
38604;DHT22;24924;50.054;8.790;2023-06-14T08:43:17;23.10;84.80
38604;DHT22;24924;50.054;8.790;2023-06-14T08:45:43;22.90;85.00
38604;DHT22;24924;50.054;8.790;2023-06-14T08:48:09;23.10;84.80
38604;DHT22;24924;50.054;8.790;2023-06-14T08:50:36;23.00;84.60
38604;DHT22;24924;50.054;8.790;2023-06-14T08:53:02;22.60;84.10
38604;DHT22;24924;50.054;8.790;2023-06-14T08:55:29;22.60;85.10
38604;DHT22;24924;50.054;8.790;2023-06-14T08:57:57;22.90;85.50
38604;DHT22;24924;50.054;8.790;2023-06-14T09:00:27;23.20;85.10
38604;DHT22;24924;50.054;8.790;2023-06-14T09:02:53;23.10;84.30
38604;DHT22;24924;50.054;8.790;2023-06-14T09:05:24;23.10;82.80
38604;DHT22;24924;50.054;8.790;2023-06-14T09:07:51;23.20;83.80
38604;DHT22;24924;50.054;8.790;2023-06-14T09:10:18;23.60;81.90
38604;DHT22;24924;50.054;8.790;2023-06-14T09:12:44;23.20;81.10
38604;DHT22;24924;50.054;8.790;2023-06-14T09:15:10;22.70;82.90
38604;DHT22;24924;50.054;8.790;2023-06-14T09:17:37;22.90;83.50
38604;DHT22;24924;50.054;8.790;2023-06-14T09:20:05;23.30;82.70
38604;DHT22;24924;50.054;8.790;2023-06-14T09:22:39;23.40;81.20
38604;DHT22;24924;50.054;8.790;2023-06-14T09:25:06;23.30;81.20
38604;DHT22;24924;50.054;8.790;2023-06-14T09:27:32;23.30;82.50
38604;DHT22;24924;50.054;8.790;2023-06-14T09:29:58;23.90;83.10
38604;DHT22;24924;50.054;8.790;2023-06-14T09:32:25;24.10;82.20
38604;DHT22;24924;50.054;8.790;2023-06-14T09:34:51;24.40;79.00
38604;DHT22;24924;50.054;8.790;2023-06-14T09:37:27;24.60;79.20
38604;DHT22;24924;50.054;8.790;2023-06-14T09:39:54;24.60;79.40
38604;DHT22;24924;50.054;8.790;2023-06-14T09:42:20;24.70;75.90
38604;DHT22;24924;50.054;8.790;2023-06-14T09:44:49;24.70;73.20
38604;DHT22;24924;50.054;8.790;2023-06-14T09:47:15;24.50;75.30
38604;DHT22;24924;50.054;8.790;2023-06-14T09:49:42;24.00;74.10
38604;DHT22;24924;50.054;8.790;2023-06-14T09:52:17;23.60;77.20
38604;DHT22;24924;50.054;8.790;2023-06-14T09:54:46;23.60;79.10
38604;DHT22;24924;50.054;8.790;2023-06-14T09:57:14;24.10;79.50
38604;DHT22;24924;50.054;8.790;2023-06-14T09:59:41;24.70;80.10
38604;DHT22;24924;50.054;8.790;2023-06-14T10:02:27;25.40;76.40
38604;DHT22;24924;50.054;8.790;2023-06-14T10:05:07;25.40;78.40
38604;DHT22;24924;50.054;8.790;2023-06-14T10:07:48;25.90;77.50
38604;DHT22;24924;50.054;8.790;2023-06-14T10:10:18;26.10;75.90
38604;DHT22;24924;50.054;8.790;2023-06-14T10:12:44;26.00;76.30
38604;DHT22;24924;50.054;8.790;2023-06-14T10:15:17;26.00;75.70
38604;DHT22;24924;50.054;8.790;2023-06-14T10:17:59;26.30;75.20
38604;DHT22;24924;50.054;8.790;2023-06-14T10:20:51;26.30;76.70
38604;DHT22;24924;50.054;8.790;2023-06-14T10:23:22;26.40;75.50
38604;DHT22;24924;50.054;8.790;2023-06-14T10:25:58;25.80;75.10
38604;DHT22;24924;50.054;8.790;2023-06-14T10:28:25;25.70;77.10
38604;DHT22;24924;50.054;8.790;2023-06-14T10:33:35;26.20;75.00
38604;DHT22;24924;50.054;8.790;2023-06-14T10:36:28;25.40;74.50
38604;DHT22;24924;50.054;8.790;2023-06-14T10:39:05;24.90;77.50
38604;DHT22;24924;50.054;8.790;2023-06-14T10:41:35;24.60;76.20
38604;DHT22;24924;50.054;8.790;2023-06-14T10:46:40;24.70;78.00
38604;DHT22;24924;50.054;8.790;2023-06-14T10:49:10;25.30;75.50
38604;DHT22;24924;50.054;8.790;2023-06-14T10:51:42;25.20;76.80
38604;DHT22;24924;50.054;8.790;2023-06-14T10:54:15;25.20;75.50
38604;DHT22;24924;50.054;8.790;2023-06-14T10:56:51;24.70;75.10
38604;DHT22;24924;50.054;8.790;2023-06-14T10:59:19;24.60;74.00
38604;DHT22;24924;50.054;8.790;2023-06-14T11:04:48;24.80;74.00
38604;DHT22;24924;50.054;8.790;2023-06-14T11:10:41;24.80;76.20
38604;DHT22;24924;50.054;8.790;2023-06-14T11:13:07;24.90;74.40
38604;DHT22;24924;50.054;8.790;2023-06-14T11:15:35;24.20;74.40
38604;DHT22;24924;50.054;8.790;2023-06-14T11:18:03;24.50;74.70
38604;DHT22;24924;50.054;8.790;2023-06-14T11:20:31;24.40;76.30
38604;DHT22;24924;50.054;8.790;2023-06-14T11:22:58;24.60;75.80
38604;DHT22;24924;50.054;8.790;2023-06-14T11:25:24;24.40;73.20
38604;DHT22;24924;50.054;8.790;2023-06-14T11:27:50;24.00;74.90
38604;DHT22;24924;50.054;8.790;2023-06-14T11:30:17;24.20;75.30
38604;DHT22;24924;50.054;8.790;2023-06-14T11:32:49;24.30;74.70
38604;DHT22;24924;50.054;8.790;2023-06-14T11:35:21;24.90;75.00
38604;DHT22;24924;50.054;8.790;2023-06-14T11:37:48;25.10;73.30
38604;DHT22;24924;50.054;8.790;2023-06-14T11:40:15;25.10;73.40
38604;DHT22;24924;50.054;8.790;2023-06-14T11:42:41;25.20;73.10
38604;DHT22;24924;50.054;8.790;2023-06-14T11:45:08;25.80;74.40
38604;DHT22;24924;50.054;8.790;2023-06-14T11:47:35;26.20;72.30
38604;DHT22;24924;50.054;8.790;2023-06-14T11:50:02;25.90;71.40
38604;DHT22;24924;50.054;8.790;2023-06-14T11:52:28;25.70;72.00
38604;DHT22;24924;50.054;8.790;2023-06-14T11:54:54;25.20;71.90
38604;DHT22;24924;50.054;8.790;2023-06-14T11:57:20;25.10;73.00
38604;DHT22;24924;50.054;8.790;2023-06-14T11:59:47;24.90;72.20
38604;DHT22;24924;50.054;8.790;2023-06-14T12:02:16;24.70;72.90
38604;DHT22;24924;50.054;8.790;2023-06-14T12:04:42;24.70;74.20
38604;DHT22;24924;50.054;8.790;2023-06-14T12:07:13;24.70;74.60
38604;DHT22;24924;50.054;8.790;2023-06-14T12:09:41;24.40;74.30
38604;DHT22;24924;50.054;8.790;2023-06-14T12:12:11;24.60;75.00
38604;DHT22;24924;50.054;8.790;2023-06-14T12:14:37;24.50;75.40
38604;DHT22;24924;50.054;8.790;2023-06-14T12:17:07;24.90;76.20
38604;DHT22;24924;50.054;8.790;2023-06-14T12:19:33;25.00;73.80
38604;DHT22;24924;50.054;8.790;2023-06-14T12:21:59;25.40;73.00
38604;DHT22;24924;50.054;8.790;2023-06-14T12:24:29;26.00;72.80
38604;DHT22;24924;50.054;8.790;2023-06-14T12:26:57;26.20;72.20
38604;DHT22;24924;50.054;8.790;2023-06-14T12:29:25;26.60;71.00
38604;DHT22;24924;50.054;8.790;2023-06-14T12:31:51;26.50;70.30
38604;DHT22;24924;50.054;8.790;2023-06-14T12:34:20;26.00;71.10
38604;DHT22;24924;50.054;8.790;2023-06-14T12:36:46;26.00;72.00
38604;DHT22;24924;50.054;8.790;2023-06-14T12:39:12;25.50;69.90
38604;DHT22;24924;50.054;8.790;2023-06-14T12:41:38;25.70;72.60
38604;DHT22;24924;50.054;8.790;2023-06-14T12:44:07;26.10;71.80
38604;DHT22;24924;50.054;8.790;2023-06-14T12:46:33;26.40;70.70
38604;DHT22;24924;50.054;8.790;2023-06-14T12:49:00;26.40;70.20
38604;DHT22;24924;50.054;8.790;2023-06-14T12:51:26;26.00;71.70
38604;DHT22;24924;50.054;8.790;2023-06-14T12:53:52;26.10;70.00
38604;DHT22;24924;50.054;8.790;2023-06-14T12:56:19;25.60;71.00
38604;DHT22;24924;50.054;8.790;2023-06-14T12:58:45;25.20;70.00
38604;DHT22;24924;50.054;8.790;2023-06-14T13:01:11;25.20;71.30
38604;DHT22;24924;50.054;8.790;2023-06-14T13:03:36;25.60;71.30
38604;DHT22;24924;50.054;8.790;2023-06-14T13:06:02;25.70;71.60
38604;DHT22;24924;50.054;8.790;2023-06-14T13:08:29;25.60;71.40
38604;DHT22;24924;50.054;8.790;2023-06-14T13:10:56;25.40;71.30
38604;DHT22;24924;50.054;8.790;2023-06-14T13:13:21;25.50;73.00
38604;DHT22;24924;50.054;8.790;2023-06-14T13:15:47;25.90;72.60
38604;DHT22;24924;50.054;8.790;2023-06-14T13:18:14;26.10;70.80
38604;DHT22;24924;50.054;8.790;2023-06-14T13:20:40;26.70;70.60
38604;DHT22;24924;50.054;8.790;2023-06-14T13:23:05;26.40;70.80
38604;DHT22;24924;50.054;8.790;2023-06-14T13:25:34;26.00;70.20
38604;DHT22;24924;50.054;8.790;2023-06-14T13:28:00;26.20;71.10
38604;DHT22;24924;50.054;8.790;2023-06-14T13:30:26;26.50;71.30
38604;DHT22;24924;50.054;8.790;2023-06-14T13:32:52;26.70;68.10
38604;DHT22;24924;50.054;8.790;2023-06-14T13:35:18;26.80;69.00
38604;DHT22;24924;50.054;8.790;2023-06-14T13:37:45;27.10;68.40
38604;DHT22;24924;50.054;8.790;2023-06-14T13:40:11;27.00;69.10
38604;DHT22;24924;50.054;8.790;2023-06-14T13:42:37;27.10;68.30
38604;DHT22;24924;50.054;8.790;2023-06-14T13:45:04;27.50;69.90
38604;DHT22;24924;50.054;8.790;2023-06-14T13:47:31;27.50;68.80
38604;DHT22;24924;50.054;8.790;2023-06-14T13:49:57;27.10;69.20
38604;DHT22;24924;50.054;8.790;2023-06-14T13:52:24;26.70;67.30
38604;DHT22;24924;50.054;8.790;2023-06-14T13:54:50;26.10;68.90
38604;DHT22;24924;50.054;8.790;2023-06-14T13:57:16;25.80;69.50
38604;DHT22;24924;50.054;8.790;2023-06-14T13:59:42;25.80;69.90
38604;DHT22;24924;50.054;8.790;2023-06-14T14:02:10;26.80;68.70
38604;DHT22;24924;50.054;8.790;2023-06-14T14:04:37;26.80;69.60
38604;DHT22;24924;50.054;8.790;2023-06-14T14:07:04;27.40;67.30
38604;DHT22;24924;50.054;8.790;2023-06-14T14:09:30;27.60;68.40
38604;DHT22;24924;50.054;8.790;2023-06-14T14:11:56;27.40;65.00
38604;DHT22;24924;50.054;8.790;2023-06-14T14:14:22;27.90;67.30
38604;DHT22;24924;50.054;8.790;2023-06-14T14:16:49;28.10;68.30
38604;DHT22;24924;50.054;8.790;2023-06-14T14:19:17;28.00;66.60
38604;DHT22;24924;50.054;8.790;2023-06-14T14:21:44;28.20;64.50
38604;DHT22;24924;50.054;8.790;2023-06-14T14:24:10;28.50;66.70
38604;DHT22;24924;50.054;8.790;2023-06-14T14:26:36;28.70;65.00
38604;DHT22;24924;50.054;8.790;2023-06-14T14:29:02;28.80;66.10
38604;DHT22;24924;50.054;8.790;2023-06-14T14:31:28;28.90;65.30
38604;DHT22;24924;50.054;8.790;2023-06-14T14:33:54;28.70;66.70
38604;DHT22;24924;50.054;8.790;2023-06-14T14:36:20;28.20;67.70
38604;DHT22;24924;50.054;8.790;2023-06-14T14:38:45;28.20;67.30
38604;DHT22;24924;50.054;8.790;2023-06-14T14:41:13;28.20;66.60
38604;DHT22;24924;50.054;8.790;2023-06-14T14:43:38;27.70;67.20
38604;DHT22;24924;50.054;8.790;2023-06-14T14:46:05;27.30;67.20
38604;DHT22;24924;50.054;8.790;2023-06-14T14:48:30;27.00;66.90
38604;DHT22;24924;50.054;8.790;2023-06-14T14:50:56;26.70;67.80
38604;DHT22;24924;50.054;8.790;2023-06-14T14:53:22;26.40;68.70
38604;DHT22;24924;50.054;8.790;2023-06-14T14:55:49;26.50;69.70
38604;DHT22;24924;50.054;8.790;2023-06-14T14:58:15;26.10;69.70
38604;DHT22;24924;50.054;8.790;2023-06-14T15:00:47;26.30;70.10
38604;DHT22;24924;50.054;8.790;2023-06-14T15:03:13;27.30;68.20
38604;DHT22;24924;50.054;8.790;2023-06-14T15:05:40;27.80;67.60
38604;DHT22;24924;50.054;8.790;2023-06-14T15:08:06;28.40;65.60
38604;DHT22;24924;50.054;8.790;2023-06-14T15:10:40;28.80;66.70
38604;DHT22;24924;50.054;8.790;2023-06-14T15:13:07;29.40;66.60
38604;DHT22;24924;50.054;8.790;2023-06-14T15:15:34;29.80;63.80
38604;DHT22;24924;50.054;8.790;2023-06-14T15:18:00;29.80;63.10
38604;DHT22;24924;50.054;8.790;2023-06-14T15:20:26;29.60;63.40
38604;DHT22;24924;50.054;8.790;2023-06-14T15:22:53;30.30;61.90
38604;DHT22;24924;50.054;8.790;2023-06-14T15:25:28;30.10;63.30
38604;DHT22;24924;50.054;8.790;2023-06-14T15:27:55;30.50;61.70
38604;DHT22;24924;50.054;8.790;2023-06-14T15:30:22;30.90;61.40
38604;DHT22;24924;50.054;8.790;2023-06-14T15:32:48;29.90;62.70
38604;DHT22;24924;50.054;8.790;2023-06-14T15:35:18;30.00;63.30
38604;DHT22;24924;50.054;8.790;2023-06-14T15:37:44;31.10;62.10
38604;DHT22;24924;50.054;8.790;2023-06-14T15:40:10;31.00;60.70
38604;DHT22;24924;50.054;8.790;2023-06-14T15:42:36;30.70;60.70
38604;DHT22;24924;50.054;8.790;2023-06-14T15:45:03;30.30;62.30
38604;DHT22;24924;50.054;8.790;2023-06-14T15:47:29;30.10;63.40